Latest Weather Observations for Marree Airport

IDS60801

Issued at 4:31 pm CST Monday 30 May 2016 (issued every 30 minutes, with the page automatically refreshed every 10 minutes)

About weather observations | Map of weather stations | Latest weather observations for SA | Other Formats
Station Details ID: 017126 Name: MARREE AERO Lat: -29.66 Lon: 138.07 Height: 50.0 m
Data from the previous 72 hours. | See also: Recent months at Marree Airport
Date/Time
CST
Temp
°C
App
Temp
°C
Dew
Point
Rel
Hum
%
Delta-T
°C
Wind Press
QNH
hPa
Press
MSL
hPa
Rain
since 9 am
mm
Dir
 
Spd
km/h
Gust
km/h
Spd
kts
Gust
kts
30/04:30pm 19.7 15.2 4.2 36 7.4 NNE 17 22 9 12 1019.7 1019.6 0.0
30/04:00pm 20.3 15.1 3.5 33 8.0 NNE 20 26 11 14 1019.4 1019.3 0.0
30/03:30pm 20.3 14.7 3.5 33 8.0 NNE 22 28 12 15 1019.2 1019.1 0.0
30/03:00pm 20.6 16.0 3.8 33 8.0 NE 17 22 9 12 1019.4 1019.3 0.0
30/02:30pm 20.5 14.9 3.7 33 8.0 NNE 22 28 12 15 1019.5 1019.4 0.0
30/02:00pm 20.3 14.7 3.5 33 8.0 NNE 22 30 12 16 1019.6 1019.5 0.0
30/01:30pm 20.4 14.4 3.6 33 8.0 NNE 24 32 13 17 1019.9 1019.8 0.0
30/01:00pm 20.4 15.2 3.6 33 8.0 NE 20 26 11 14 1020.0 1019.9 0.0
30/12:30pm 19.8 14.2 3.5 34 7.7 NE 22 28 12 15 1020.9 1020.9 0.0
30/12:00pm 19.5 13.6 4.0 36 7.4 NE 24 30 13 16 1021.4 1021.4 0.0
30/11:30am 18.3 12.4 4.1 39 6.7 NNE 24 30 13 16 1021.4 1021.4 0.0
30/11:00am 18.3 12.9 4.5 40 6.6 NE 22 32 12 17 1021.6 1021.6 0.0
30/10:30am 17.8 12.3 4.0 40 6.5 NNE 22 26 12 14 1022.2 1022.2 0.0
30/10:00am 17.0 12.1 5.0 45 5.7 NE 20 24 11 13 1022.3 1022.3 0.0
30/09:30am 15.9 11.9 4.9 48 5.2 NNE 15 20 8 11 1022.3 1022.3 0.0
30/09:00am 14.8 13.2 6.4 57 4.0 ENE 4 13 2 7 1022.3 1022.3 0.0
30/08:30am 11.9 9.4 6.6 70 2.5 SE 9 11 5 6 1021.7 1021.7 0.0
30/08:00am 10.9 7.6 6.6 75 2.0 SSE 13 17 7 9 1021.4 1021.4 0.0
30/07:30am 10.6 7.7 6.4 75 2.0 SE 11 15 6 8 1020.8 1020.8 0.0
30/07:00am 10.5 7.6 6.6 77 1.8 SE 11 15 6 8 1020.5 1020.4 0.0
30/06:30am 9.7 6.7 6.2 79 1.6 ESE 11 13 6 7 1020.1 1020.0 0.0
30/06:00am 9.3 5.9 5.7 78 1.6 SE 13 15 7 8 1020.0 1019.9 0.0
30/05:30am 9.4 6.4 6.1 80 1.5 ESE 11 15 6 8 1019.7 1019.6 0.0
30/05:00am 8.4 4.6 5.7 83 1.2 ESE 15 15 8 8 1019.5 1019.4 0.0
30/04:30am 9.0 7.3 5.7 80 1.5 E 4 7 2 4 1020.0 1019.9 0.0
30/04:00am 9.3 5.4 5.5 77 1.7 ENE 15 17 8 9 1019.1 1019.0 0.0
30/03:30am 9.0 6.0 5.9 81 1.4 ENE 11 13 6 7 1019.4 1019.3 0.0
30/03:00am 8.2 5.1 5.7 84 1.1 ESE 11 13 6 7 1019.5 1019.4 0.0
30/02:30am 8.5 7.5 5.6 82 1.3 CALM 0 0 0 0 1019.7 1019.6 0.0
30/02:00am 9.7 7.2 4.9 72 2.2 NE 7 9 4 5 1019.5 1019.4 0.0
30/01:30am 9.9 6.8 5.7 75 1.9 NE 11 13 6 7 1019.2 1019.1 0.0
30/01:00am 9.7 6.3 5.7 76 1.8 ENE 13 13 7 7 1019.4 1019.3 0.0
30/12:30am 9.8 7.6 6.0 77 1.7 ENE 7 11 4 6 1019.7 1019.6 0.0
30/12:00am 10.6 8.3 5.6 71 2.3 NE 7 11 4 6 1020.0 1019.9 0.0
 
Date/Time
CST
Temp
°C
App
Temp
°C
Dew
Point
Rel
Hum
%
Delta-T
°C
Wind Press
QNH
hPa
Press
MSL
hPa
Rain
since 9 am
mm
Dir
 
Spd
km/h
Gust
km/h
Spd
kts
Gust
kts
29/11:30pm 10.8 8.2 6.2 73 2.1 NE 9 13 5 7 1019.9 1019.8 0.0
29/11:00pm 10.0 8.7 6.0 76 1.8 NNW 2 6 1 3 1020.3 1020.2 0.0
29/10:30pm 11.6 9.0 5.9 68 2.7 NNE 9 11 5 6 1020.2 1020.1 0.0
29/10:00pm 12.3 9.7 6.1 66 2.9 NE 9 11 5 6 1019.9 1019.8 0.0
29/09:30pm 12.1 8.4 6.2 67 2.8 NE 15 17 8 9 1019.6 1019.5 0.0
29/09:00pm 12.8 10.2 6.2 64 3.1 NE 9 11 5 6 1020.0 1019.9 0.0
29/08:30pm 13.2 10.2 6.1 62 3.4 NNE 11 13 6 7 1019.9 1019.8 0.0
29/08:00pm 13.6 10.6 6.0 60 3.6 NE 11 13 6 7 1019.8 1019.7 0.0
29/07:30pm 13.9 11.0 6.3 60 3.6 NE 11 15 6 8 1019.4 1019.3 0.0
29/07:00pm 15.7 13.1 5.9 52 4.7 NE 9 11 5 6 1019.3 1019.2 0.0
29/06:30pm 16.1 13.5 6.0 51 4.9 N 9 11 5 6 1019.1 1019.0 0.0
29/06:00pm 16.9 13.9 6.1 49 5.3 N 11 13 6 7 1018.8 1018.7 0.0
29/05:30pm 18.0 15.2 5.2 43 6.2 N 9 11 5 6 1018.7 1018.6 0.0
29/05:00pm 18.9 16.1 5.0 40 6.7 NNE 9 13 5 7 1018.3 1018.2 0.0
29/04:30pm 19.2 16.0 4.9 39 6.9 NNE 11 15 6 8 1018.0 1017.9 0.0
29/04:00pm 19.3 17.3 4.6 38 7.1 NNE 4 9 2 5 1018.1 1018.0 0.0
29/03:30pm 19.6 17.2 5.3 39 7.0 N 7 15 4 8 1018.2 1018.1 0.0
29/03:00pm 19.7 16.8 4.6 37 7.3 NNE 9 17 5 9 1018.3 1018.2 0.0
29/02:30pm 19.5 16.9 4.4 37 7.2 N 7 11 4 6 1018.5 1018.4 0.0
29/02:00pm 19.5 16.9 4.4 37 7.3 N 7 13 4 7 1018.4 1018.3 0.0
29/01:30pm 19.3 16.6 5.4 40 6.8 NNW 9 15 5 8 1018.7 1018.6 0.0
29/01:00pm 18.7 15.1 5.2 41 6.6 NNW 13 19 7 10 1019.2 1019.1 0.0
29/12:30pm 18.5 15.4 5.4 42 6.4 N 11 20 6 11 1019.6 1019.5 0.0
29/12:00pm 17.9 14.4 5.5 44 6.0 N 13 19 7 10 1020.0 1019.9 0.0
29/11:30am 17.6 15.0 5.9 46 5.7 NNW 9 15 5 8 1020.4 1020.3 0.0
29/11:00am 16.8 14.8 6.9 52 4.9 NNW 7 13 4 7 1020.8 1020.8 0.0
29/10:30am 15.9 14.5 7.1 56 4.3 N 4 9 2 5 1021.1 1021.1 0.0
29/10:00am 14.5 13.6 7.8 64 3.3 ENE 2 6 1 3 1021.3 1021.3 0.0
29/09:30am 12.5 10.9 8.2 75 2.1 ESE 6 7 3 4 1021.2 1021.2 0.0
29/09:00am 10.5 8.9 8.8 89 0.8 SSE 7 9 4 5 1021.2 1021.2 0.0
29/08:30am 8.5 6.6 7.7 95 0.4 SE 7 9 4 5 1020.8 1020.8 0.0
29/08:00am 6.6 3.2 6.0 96 0.3 SE 13 15 7 8 1020.5 1020.4 0.0
29/07:30am 4.8 1.1 4.2 96 0.3 SE 13 15 7 8 1020.3 1020.2 0.0
29/07:00am 4.4 0.6 3.8 96 0.3 SE 13 15 7 8 1020.0 1019.9 0.0
29/06:30am 4.3 0.8 3.7 96 0.2 SSE 11 11 6 6 1019.8 1019.7 0.0
29/06:00am 4.7 2.3 4.1 96 0.3 SE 6 9 3 5 1019.5 1019.4 0.0
29/05:30am 4.9 2.3 4.2 95 0.3 S 7 9 4 5 1019.1 1019.0 0.0
29/05:00am 5.5 3.0 4.8 95 0.3 SW 7 7 4 4 1019.0 1018.9 0.0
29/04:30am 8.1 7.5 7.3 95 0.4 CALM 0 0 0 0 1018.9 1018.8 0.0
29/04:00am 6.3 4.2 5.6 95 0.3 NNW 6 7 3 4 1018.9 1018.8 0.0
29/03:30am 6.0 3.6 5.3 95 0.3 NNW 7 13 4 7 1019.0 1018.9 0.0
29/03:00am 6.2 3.9 5.5 95 0.3 SSE 7 7 4 4 1018.7 1018.6 0.0
29/02:30am 6.2 4.0 5.5 95 0.3 ESE 6 9 3 5 1018.7 1018.6 0.0
29/02:00am 6.8 3.8 6.1 95 0.3 ESE 11 13 6 7 1018.8 1018.7 0.0
29/01:30am 6.8 4.2 6.1 95 0.3 SSE 9 9 5 5 1018.9 1018.8 0.0
29/01:00am 7.3 5.4 6.6 95 0.3 SW 6 7 3 4 1019.1 1019.0 0.0
29/12:30am 7.6 5.5 6.7 94 0.4 SSE 7 7 4 4 1019.2 1019.1 0.0
29/12:00am 8.0 5.6 7.1 94 0.4 S 9 11 5 6 1019.2 1019.1 0.0
 
Date/Time
CST
Temp
°C
App
Temp
°C
Dew
Point
Rel
Hum
%
Delta-T
°C
Wind Press
QNH
hPa
Press
MSL
hPa
Rain
since 9 am
mm
Dir
 
Spd
km/h
Gust
km/h
Spd
kts
Gust
kts
28/11:30pm 8.2 5.9 7.3 94 0.4 SW 9 11 5 6 1019.4 1019.3 0.0
28/11:00pm 8.1 7.4 7.0 93 0.5 CALM 0 9 0 5 1019.4 1019.3 0.0
28/10:30pm 9.8 7.4 7.1 83 1.3 E 9 11 5 6 1019.2 1019.1 0.0
28/10:00pm 9.9 7.1 6.8 81 1.5 E 11 11 6 6 1019.2 1019.1 0.0
28/09:30pm 10.1 8.6 6.6 79 1.6 SSW 4 7 2 4 1019.5 1019.4 0.0
28/09:00pm 10.7 8.3 7.0 78 1.8 SW 9 11 5 6 1019.6 1019.5 0.0
28/08:30pm 11.1 8.3 7.0 76 1.9 SW 11 13 6 7 1019.8 1019.7 0.0
28/08:00pm 11.3 8.5 7.0 75 2.1 S 11 15 6 8 1019.6 1019.5 0.0
28/07:30pm 12.9 9.3 6.9 67 2.9 SSW 15 15 8 8 1019.4 1019.3 0.0
28/07:00pm 13.3 10.1 6.9 65 3.1 SSW 13 15 7 8 1018.9 1018.8 0.0
28/06:30pm 14.4 11.2 6.7 60 3.7 SSW 13 15 7 8 1018.5 1018.4 0.0
28/06:00pm 15.2 11.9 6.5 56 4.2 SSW 13 17 7 9 1018.2 1018.1 0.0
28/05:30pm 16.6 12.9 6.4 51 5.0 SW 15 20 8 11 1018.0 1017.9 0.0
28/05:00pm 17.6 14.3 6.5 48 5.5 SSW 13 17 7 9 1017.7 1017.6 0.0
28/04:30pm 18.2 13.7 6.1 45 6.0 SW 19 24 10 13 1017.7 1017.6 0.0
28/04:00pm 18.6 14.5 6.1 44 6.2 SSW 17 24 9 13 1017.5 1017.4 0.0
28/03:30pm 18.7 14.6 6.2 44 6.2 SW 17 26 9 14 1017.4 1017.3 0.0
28/03:00pm 19.1 14.6 6.2 43 6.4 SW 19 32 10 17 1017.5 1017.4 0.0
28/02:30pm 18.8 14.3 6.3 44 6.2 WSW 19 28 10 15 1017.5 1017.4 0.0
28/02:00pm 18.3 13.8 6.8 47 5.8 SW 20 28 11 15 1017.7 1017.6 0.0
28/01:30pm 18.6 14.3 7.1 47 5.8 SW 19 30 10 16 1017.9 1017.8 0.0
28/01:00pm 18.3 14.1 7.4 49 5.5 SW 19 30 10 16 1018.1 1018.0 0.0
28/12:30pm 17.8 13.5 7.0 49 5.4 SW 19 26 10 14 1018.5 1018.4 0.0
28/12:00pm 16.7 12.2 7.1 53 4.8 SW 20 28 11 15 1019.1 1019.0 0.0
28/11:30am 16.5 11.8 7.7 56 4.4 WSW 22 30 12 16 1019.5 1019.4 0.0
28/11:00am 16.0 11.5 8.5 61 3.8 W 22 30 12 16 1019.9 1019.8 0.0
28/10:30am 15.1 10.5 8.3 64 3.4 W 22 32 12 17 1020.1 1020.0 0.0
28/10:00am 14.4 9.7 9.2 71 2.7 W 24 30 13 16 1019.7 1019.6 0.0
28/09:30am 13.0 8.6 8.9 76 2.1 W 22 28 12 15 1019.6 1019.5 0.0
28/09:00am 11.8 8.5 9.4 85 1.2 W 17 24 9 13 1019.8 1019.7 0.0
28/08:30am 10.5 7.2 9.7 95 0.4 WNW 17 22 9 12 1019.5 1019.4 0.0
28/08:00am 9.4 6.7 8.8 96 0.3 W 13 19 7 10 1019.2 1019.1 0.0
28/07:30am 8.2 5.2 7.6 96 0.3 W 13 15 7 8 1018.9 1018.8 0.0
28/07:00am 7.5 3.9 6.9 96 0.3 WSW 15 15 8 8 1018.6 1018.5 0.0
28/06:30am 8.3 6.1 7.7 96 0.3 WNW 9 13 5 7 1018.4 1018.3 0.0
28/06:00am 7.7 5.9 7.1 96 0.3 NW 6 11 3 6 1018.3 1018.2 0.0
28/05:30am 7.9 4.0 7.1 95 0.4 WSW 17 20 9 11 1017.9 1017.8 0.0
28/05:00am 8.2 4.7 7.4 95 0.4 W 15 17 8 9 1017.7 1017.6 0.0
28/04:30am 8.3 4.9 7.5 95 0.4 WSW 15 17 8 9 1017.6 1017.5 0.0
28/04:00am 9.0 6.9 8.2 95 0.4 WSW 9 11 5 6 1017.6 1017.5 0.0
28/03:30am 8.9 6.0 8.1 95 0.4 W 13 15 7 8 1017.6 1017.5 0.0
28/03:00am 8.9 6.3 7.7 92 0.6 WNW 11 13 6 7 1017.8 1017.7 0.0
28/02:30am 9.7 6.4 6.4 80 1.5 WNW 13 15 7 8 1017.8 1017.7 0.0
28/02:00am 11.5 7.6 7.0 74 2.2 WSW 17 19 9 10 1017.8 1017.7 0.0
28/01:30am 12.0 7.7 7.1 72 2.4 WSW 19 24 10 13 1017.9 1017.8 0.0
28/01:00am 12.3 7.0 6.8 69 2.6 SW 24 30 13 16 1017.5 1017.4 0.0
28/12:30am 12.7 6.6 6.5 66 3.0 SW 28 39 15 21 1017.3 1017.2 0.0
28/12:00am 13.0 7.3 6.6 65 3.1 SW 26 32 14 17 1017.6 1017.5 0.0
 
Date/Time
CST
Temp
°C
App
Temp
°C
Dew
Point
Rel
Hum
%
Delta-T
°C
Wind Press
QNH
hPa
Press
MSL
hPa
Rain
since 9 am
mm
Dir
 
Spd
km/h
Gust
km/h
Spd
kts
Gust
kts
27/11:30pm 13.3 7.9 6.2 62 3.4 SW 24 35 13 19 1017.6 1017.5 0.0
27/11:00pm 14.2 7.6 6.1 58 3.9 SW 30 37 16 20 1017.3 1017.2 0.0
27/10:30pm 14.2 8.5 6.8 61 3.6 SW 26 33 14 18 1017.4 1017.3 0.0
27/10:00pm 14.7 8.0 7.5 62 3.6 SW 32 41 17 22 1017.4 1017.3 0.0
27/09:30pm 15.6 9.4 9.3 66 3.2 SW 32 41 17 22 1017.2 1017.1 0.0
27/09:00pm 15.9 10.3 8.6 62 3.7 SW 28 35 15 19 1017.3 1017.2 0.0
27/08:30pm 16.7 10.1 8.4 58 4.2 SW 33 46 18 25 1017.0 1016.9 0.0
27/08:00pm 16.8 9.9 8.8 59 4.1 SW 35 44 19 24 1016.8 1016.7 0.0
27/07:30pm 17.9 12.2 6.7 48 5.6 WSW 26 46 14 25 1016.5 1016.4 0.0
27/07:28pm 17.7 12.7 6.6 48 5.5 WSW 22 39 12 21 1016.5 1016.4 0.0
27/07:00pm 15.5 12.2 6.2 54 4.5 WSW 13 15 7 8 1016.3 1016.2 0.0
27/06:30pm 16.2 12.7 5.5 49 5.1 W 13 15 7 8 1015.9 1015.8 0.0
27/06:00pm 16.9 12.5 4.6 44 5.8 WSW 17 20 9 11 1015.7 1015.6 0.0
27/05:30pm 18.1 11.7 3.2 37 6.9 WSW 26 37 14 20 1015.5 1015.4 0.0
27/05:00pm 19.0 11.3 2.4 33 7.6 W 32 43 17 23 1015.3 1015.2 0.0

Other Formats:

Comma delimited format used in spreadsheet applications
http://www.bom.gov.au/fwo/IDS60801/IDS60801.95480.axf

JavaScript Object Notation format (JSON) in row-major order
http://www.bom.gov.au/fwo/IDS60801/IDS60801.95480.json